sensor_id;sensor_type;location;lat;lon;timestamp;P1;durP1;ratioP1;P2;durP2;ratioP2
75823;SDS011;64457;51.976;9.834;2023-04-01T00:01:03;8.57;;;1.27;;
75823;SDS011;64457;51.976;9.834;2023-04-01T00:03:34;7.40;;;1.70;;
75823;SDS011;64457;51.976;9.834;2023-04-01T00:06:02;9.23;;;1.30;;
75823;SDS011;64457;51.976;9.834;2023-04-01T00:08:30;9.83;;;1.40;;
75823;SDS011;64457;51.976;9.834;2023-04-01T00:10:58;10.20;;;2.20;;
75823;SDS011;64457;51.976;9.834;2023-04-01T00:13:26;8.17;;;1.50;;
75823;SDS011;64457;51.976;9.834;2023-04-01T00:15:54;10.43;;;1.50;;
75823;SDS011;64457;51.976;9.834;2023-04-01T00:18:25;6.50;;;1.40;;
75823;SDS011;64457;51.976;9.834;2023-04-01T00:20:55;9.13;;;1.40;;
75823;SDS011;64457;51.976;9.834;2023-04-01T00:23:22;7.80;;;1.20;;
75823;SDS011;64457;51.976;9.834;2023-04-01T00:25:50;8.87;;;1.10;;
75823;SDS011;64457;51.976;9.834;2023-04-01T00:28:19;9.10;;;2.20;;
75823;SDS011;64457;51.976;9.834;2023-04-01T00:30:47;8.43;;;1.40;;
75823;SDS011;64457;51.976;9.834;2023-04-01T00:33:15;7.83;;;1.20;;
75823;SDS011;64457;51.976;9.834;2023-04-01T00:35:43;9.70;;;1.50;;
75823;SDS011;64457;51.976;9.834;2023-04-01T00:38:13;8.60;;;1.10;;
75823;SDS011;64457;51.976;9.834;2023-04-01T00:40:43;6.33;;;1.07;;
75823;SDS011;64457;51.976;9.834;2023-04-01T00:43:13;8.53;;;1.23;;
75823;SDS011;64457;51.976;9.834;2023-04-01T00:45:45;6.50;;;1.30;;
75823;SDS011;64457;51.976;9.834;2023-04-01T00:48:14;7.30;;;1.23;;
75823;SDS011;64457;51.976;9.834;2023-04-01T00:50:46;9.00;;;1.30;;
75823;SDS011;64457;51.976;9.834;2023-04-01T00:53:19;7.90;;;1.40;;
75823;SDS011;64457;51.976;9.834;2023-04-01T00:55:49;7.13;;;1.20;;
75823;SDS011;64457;51.976;9.834;2023-04-01T00:58:21;9.93;;;1.70;;
75823;SDS011;64457;51.976;9.834;2023-04-01T01:00:51;8.20;;;1.47;;
75823;SDS011;64457;51.976;9.834;2023-04-01T01:03:20;9.10;;;1.60;;
75823;SDS011;64457;51.976;9.834;2023-04-01T01:05:55;6.70;;;1.40;;
75823;SDS011;64457;51.976;9.834;2023-04-01T01:11:42;7.23;;;1.23;;
75823;SDS011;64457;51.976;9.834;2023-04-01T01:14:20;6.10;;;1.20;;
75823;SDS011;64457;51.976;9.834;2023-04-01T01:17:02;7.40;;;1.33;;
75823;SDS011;64457;51.976;9.834;2023-04-01T01:23:01;6.80;;;1.20;;
75823;SDS011;64457;51.976;9.834;2023-04-01T01:25:58;8.60;;;1.70;;
75823;SDS011;64457;51.976;9.834;2023-04-01T01:29:01;9.33;;;1.80;;
75823;SDS011;64457;51.976;9.834;2023-04-01T01:31:54;9.47;;;1.50;;
75823;SDS011;64457;51.976;9.834;2023-04-01T01:34:32;5.40;;;1.37;;
75823;SDS011;64457;51.976;9.834;2023-04-01T01:37:13;6.80;;;1.60;;
75823;SDS011;64457;51.976;9.834;2023-04-01T01:39:45;7.17;;;1.30;;
75823;SDS011;64457;51.976;9.834;2023-04-01T01:42:22;8.30;;;1.40;;
75823;SDS011;64457;51.976;9.834;2023-04-01T01:44:54;7.07;;;1.40;;
75823;SDS011;64457;51.976;9.834;2023-04-01T01:47:26;8.50;;;1.80;;
75823;SDS011;64457;51.976;9.834;2023-04-01T01:49:58;6.73;;;1.50;;
75823;SDS011;64457;51.976;9.834;2023-04-01T01:52:31;8.40;;;1.80;;
75823;SDS011;64457;51.976;9.834;2023-04-01T01:55:00;8.67;;;1.63;;
75823;SDS011;64457;51.976;9.834;2023-04-01T01:57:29;9.20;;;1.80;;
75823;SDS011;64457;51.976;9.834;2023-04-01T02:00:03;8.33;;;1.77;;
75823;SDS011;64457;51.976;9.834;2023-04-01T02:02:38;6.10;;;1.53;;
75823;SDS011;64457;51.976;9.834;2023-04-01T02:05:07;8.43;;;1.53;;
75823;SDS011;64457;51.976;9.834;2023-04-01T02:07:39;9.90;;;1.63;;
75823;SDS011;64457;51.976;9.834;2023-04-01T02:10:12;8.27;;;1.57;;
75823;SDS011;64457;51.976;9.834;2023-04-01T02:12:41;7.00;;;1.57;;
75823;SDS011;64457;51.976;9.834;2023-04-01T02:15:12;8.13;;;1.80;;
75823;SDS011;64457;51.976;9.834;2023-04-01T02:17:43;8.03;;;1.63;;
75823;SDS011;64457;51.976;9.834;2023-04-01T02:20:15;7.57;;;1.40;;
75823;SDS011;64457;51.976;9.834;2023-04-01T02:22:49;8.63;;;1.77;;
75823;SDS011;64457;51.976;9.834;2023-04-01T02:25:23;8.27;;;2.10;;
75823;SDS011;64457;51.976;9.834;2023-04-01T02:27:58;9.43;;;2.07;;
75823;SDS011;64457;51.976;9.834;2023-04-01T02:30:28;9.20;;;1.60;;
75823;SDS011;64457;51.976;9.834;2023-04-01T02:32:59;7.43;;;1.60;;
75823;SDS011;64457;51.976;9.834;2023-04-01T02:35:30;7.40;;;1.57;;
75823;SDS011;64457;51.976;9.834;2023-04-01T02:38:03;7.30;;;1.90;;
75823;SDS011;64457;51.976;9.834;2023-04-01T02:40:45;8.93;;;1.67;;
75823;SDS011;64457;51.976;9.834;2023-04-01T02:43:18;9.70;;;1.80;;
75823;SDS011;64457;51.976;9.834;2023-04-01T02:45:47;8.00;;;2.00;;
75823;SDS011;64457;51.976;9.834;2023-04-01T02:48:16;7.27;;;1.50;;
75823;SDS011;64457;51.976;9.834;2023-04-01T02:50:44;7.60;;;1.50;;
75823;SDS011;64457;51.976;9.834;2023-04-01T02:53:13;7.23;;;1.40;;
75823;SDS011;64457;51.976;9.834;2023-04-01T02:55:44;7.20;;;1.50;;
75823;SDS011;64457;51.976;9.834;2023-04-01T02:58:15;6.57;;;1.43;;
75823;SDS011;64457;51.976;9.834;2023-04-01T03:00:43;9.73;;;1.53;;
75823;SDS011;64457;51.976;9.834;2023-04-01T03:03:11;8.60;;;2.13;;
75823;SDS011;64457;51.976;9.834;2023-04-01T03:05:43;6.90;;;1.73;;
75823;SDS011;64457;51.976;9.834;2023-04-01T03:08:10;7.30;;;2.10;;
75823;SDS011;64457;51.976;9.834;2023-04-01T03:10:41;9.90;;;2.20;;
75823;SDS011;64457;51.976;9.834;2023-04-01T03:13:08;7.67;;;1.70;;
75823;SDS011;64457;51.976;9.834;2023-04-01T03:15:36;7.47;;;1.80;;
75823;SDS011;64457;51.976;9.834;2023-04-01T03:18:06;9.77;;;1.83;;
75823;SDS011;64457;51.976;9.834;2023-04-01T03:20:34;8.53;;;1.73;;
75823;SDS011;64457;51.976;9.834;2023-04-01T03:23:03;6.50;;;1.67;;
75823;SDS011;64457;51.976;9.834;2023-04-01T03:25:30;7.73;;;1.70;;
75823;SDS011;64457;51.976;9.834;2023-04-01T03:28:04;7.87;;;1.70;;
75823;SDS011;64457;51.976;9.834;2023-04-01T03:30:31;6.67;;;1.43;;
75823;SDS011;64457;51.976;9.834;2023-04-01T03:32:59;7.57;;;1.50;;
75823;SDS011;64457;51.976;9.834;2023-04-01T03:35:28;7.03;;;1.53;;
75823;SDS011;64457;51.976;9.834;2023-04-01T03:37:56;8.97;;;2.20;;
75823;SDS011;64457;51.976;9.834;2023-04-01T03:40:24;7.83;;;1.50;;
75823;SDS011;64457;51.976;9.834;2023-04-01T03:42:52;5.73;;;1.43;;
75823;SDS011;64457;51.976;9.834;2023-04-01T03:45:25;10.43;;;1.57;;
75823;SDS011;64457;51.976;9.834;2023-04-01T03:47:54;10.83;;;1.97;;
75823;SDS011;64457;51.976;9.834;2023-04-01T03:50:22;9.47;;;1.70;;
75823;SDS011;64457;51.976;9.834;2023-04-01T03:52:49;5.80;;;1.50;;
75823;SDS011;64457;51.976;9.834;2023-04-01T03:55:17;7.17;;;1.47;;
75823;SDS011;64457;51.976;9.834;2023-04-01T03:57:46;6.07;;;1.23;;
75823;SDS011;64457;51.976;9.834;2023-04-01T04:00:15;6.90;;;1.57;;
75823;SDS011;64457;51.976;9.834;2023-04-01T04:02:45;7.70;;;1.10;;
75823;SDS011;64457;51.976;9.834;2023-04-01T04:05:12;10.03;;;1.93;;
75823;SDS011;64457;51.976;9.834;2023-04-01T04:07:41;5.70;;;1.47;;
75823;SDS011;64457;51.976;9.834;2023-04-01T04:10:09;7.17;;;1.30;;
75823;SDS011;64457;51.976;9.834;2023-04-01T04:12:37;9.23;;;1.73;;
75823;SDS011;64457;51.976;9.834;2023-04-01T04:15:06;8.00;;;1.60;;
75823;SDS011;64457;51.976;9.834;2023-04-01T04:17:34;7.23;;;1.60;;
75823;SDS011;64457;51.976;9.834;2023-04-01T04:20:05;8.23;;;1.53;;
75823;SDS011;64457;51.976;9.834;2023-04-01T04:22:34;8.10;;;1.80;;
75823;SDS011;64457;51.976;9.834;2023-04-01T04:25:02;8.20;;;1.70;;
75823;SDS011;64457;51.976;9.834;2023-04-01T04:27:31;7.53;;;1.67;;
75823;SDS011;64457;51.976;9.834;2023-04-01T04:30:01;6.63;;;1.60;;
75823;SDS011;64457;51.976;9.834;2023-04-01T04:32:30;10.37;;;2.00;;
75823;SDS011;64457;51.976;9.834;2023-04-01T04:34:58;8.60;;;1.60;;
75823;SDS011;64457;51.976;9.834;2023-04-01T04:37:27;9.20;;;2.07;;
75823;SDS011;64457;51.976;9.834;2023-04-01T04:39:55;8.30;;;2.10;;
75823;SDS011;64457;51.976;9.834;2023-04-01T04:42:23;8.43;;;1.87;;
75823;SDS011;64457;51.976;9.834;2023-04-01T04:44:50;7.00;;;1.87;;
75823;SDS011;64457;51.976;9.834;2023-04-01T04:47:18;10.43;;;2.17;;
75823;SDS011;64457;51.976;9.834;2023-04-01T04:49:45;7.30;;;1.77;;
75823;SDS011;64457;51.976;9.834;2023-04-01T04:52:13;10.37;;;2.10;;
75823;SDS011;64457;51.976;9.834;2023-04-01T04:54:44;10.03;;;2.10;;
75823;SDS011;64457;51.976;9.834;2023-04-01T04:57:11;6.00;;;1.60;;
75823;SDS011;64457;51.976;9.834;2023-04-01T04:59:39;12.17;;;2.03;;
75823;SDS011;64457;51.976;9.834;2023-04-01T05:02:07;8.30;;;1.90;;
75823;SDS011;64457;51.976;9.834;2023-04-01T05:04:35;8.57;;;1.87;;
75823;SDS011;64457;51.976;9.834;2023-04-01T05:07:03;8.10;;;2.00;;
75823;SDS011;64457;51.976;9.834;2023-04-01T05:09:31;12.27;;;2.33;;
75823;SDS011;64457;51.976;9.834;2023-04-01T05:12:00;8.53;;;1.97;;
75823;SDS011;64457;51.976;9.834;2023-04-01T05:14:29;12.63;;;2.70;;
75823;SDS011;64457;51.976;9.834;2023-04-01T05:16:56;8.60;;;1.60;;
75823;SDS011;64457;51.976;9.834;2023-04-01T05:19:24;7.60;;;1.63;;
75823;SDS011;64457;51.976;9.834;2023-04-01T05:21:52;7.63;;;1.73;;
75823;SDS011;64457;51.976;9.834;2023-04-01T05:24:23;6.97;;;1.60;;
75823;SDS011;64457;51.976;9.834;2023-04-01T05:26:50;6.63;;;1.70;;
75823;SDS011;64457;51.976;9.834;2023-04-01T05:29:21;6.17;;;1.40;;
75823;SDS011;64457;51.976;9.834;2023-04-01T05:31:48;10.50;;;1.80;;
75823;SDS011;64457;51.976;9.834;2023-04-01T05:34:16;6.47;;;1.57;;
75823;SDS011;64457;51.976;9.834;2023-04-01T05:36:44;5.87;;;1.50;;
75823;SDS011;64457;51.976;9.834;2023-04-01T05:39:12;11.17;;;1.73;;
75823;SDS011;64457;51.976;9.834;2023-04-01T05:41:42;9.67;;;2.17;;
75823;SDS011;64457;51.976;9.834;2023-04-01T05:44:10;8.27;;;1.70;;
75823;SDS011;64457;51.976;9.834;2023-04-01T05:46:41;8.57;;;1.43;;
75823;SDS011;64457;51.976;9.834;2023-04-01T05:49:09;9.47;;;1.80;;
75823;SDS011;64457;51.976;9.834;2023-04-01T05:51:37;6.97;;;1.80;;
75823;SDS011;64457;51.976;9.834;2023-04-01T05:54:05;6.60;;;1.50;;
75823;SDS011;64457;51.976;9.834;2023-04-01T05:56:36;9.47;;;1.57;;
75823;SDS011;64457;51.976;9.834;2023-04-01T05:59:03;7.67;;;1.37;;
75823;SDS011;64457;51.976;9.834;2023-04-01T06:01:30;7.27;;;1.73;;
75823;SDS011;64457;51.976;9.834;2023-04-01T06:04:00;5.70;;;1.30;;
75823;SDS011;64457;51.976;9.834;2023-04-01T06:06:28;7.13;;;1.60;;
75823;SDS011;64457;51.976;9.834;2023-04-01T06:08:57;8.50;;;2.00;;
75823;SDS011;64457;51.976;9.834;2023-04-01T06:11:34;5.90;;;1.50;;
75823;SDS011;64457;51.976;9.834;2023-04-01T06:14:16;7.10;;;1.80;;
75823;SDS011;64457;51.976;9.834;2023-04-01T06:16:58;6.80;;;1.33;;
75823;SDS011;64457;51.976;9.834;2023-04-01T06:19:44;5.73;;;1.20;;
75823;SDS011;64457;51.976;9.834;2023-04-01T06:22:23;7.50;;;1.47;;
75823;SDS011;64457;51.976;9.834;2023-04-01T06:25:15;8.23;;;1.50;;
75823;SDS011;64457;51.976;9.834;2023-04-01T06:28:02;6.27;;;1.47;;
75823;SDS011;64457;51.976;9.834;2023-04-01T06:31:03;6.33;;;1.37;;
75823;SDS011;64457;51.976;9.834;2023-04-01T06:33:45;8.77;;;1.50;;
75823;SDS011;64457;51.976;9.834;2023-04-01T06:36:42;6.40;;;1.40;;
75823;SDS011;64457;51.976;9.834;2023-04-01T06:39:40;7.03;;;1.27;;
75823;SDS011;64457;51.976;9.834;2023-04-01T06:42:23;7.03;;;1.17;;
75823;SDS011;64457;51.976;9.834;2023-04-01T06:45:23;9.80;;;1.70;;
75823;SDS011;64457;51.976;9.834;2023-04-01T06:48:03;7.33;;;1.50;;
75823;SDS011;64457;51.976;9.834;2023-04-01T06:51:07;10.73;;;1.40;;
75823;SDS011;64457;51.976;9.834;2023-04-01T06:53:54;8.30;;;1.50;;
75823;SDS011;64457;51.976;9.834;2023-04-01T06:56:28;8.17;;;1.77;;
75823;SDS011;64457;51.976;9.834;2023-04-01T06:58:57;4.93;;;1.07;;
75823;SDS011;64457;51.976;9.834;2023-04-01T07:01:29;9.00;;;1.47;;
75823;SDS011;64457;51.976;9.834;2023-04-01T07:04:05;6.00;;;1.50;;
75823;SDS011;64457;51.976;9.834;2023-04-01T07:06:39;8.13;;;1.40;;
75823;SDS011;64457;51.976;9.834;2023-04-01T07:09:16;6.80;;;1.20;;
75823;SDS011;64457;51.976;9.834;2023-04-01T07:11:48;7.07;;;1.27;;
75823;SDS011;64457;51.976;9.834;2023-04-01T07:14:17;6.67;;;1.10;;
75823;SDS011;64457;51.976;9.834;2023-04-01T07:16:51;7.17;;;1.23;;
75823;SDS011;64457;51.976;9.834;2023-04-01T07:19:27;5.10;;;0.93;;
75823;SDS011;64457;51.976;9.834;2023-04-01T07:22:03;5.90;;;1.00;;
75823;SDS011;64457;51.976;9.834;2023-04-01T07:24:40;5.10;;;1.10;;
75823;SDS011;64457;51.976;9.834;2023-04-01T07:27:12;7.20;;;1.10;;
75823;SDS011;64457;51.976;9.834;2023-04-01T07:29:40;9.20;;;1.80;;
75823;SDS011;64457;51.976;9.834;2023-04-01T07:32:20;6.97;;;1.57;;
75823;SDS011;64457;51.976;9.834;2023-04-01T07:35:02;6.13;;;1.10;;
75823;SDS011;64457;51.976;9.834;2023-04-01T07:37:46;6.37;;;1.20;;
75823;SDS011;64457;51.976;9.834;2023-04-01T07:40:32;11.13;;;1.33;;
75823;SDS011;64457;51.976;9.834;2023-04-01T07:43:22;7.33;;;2.30;;
75823;SDS011;64457;51.976;9.834;2023-04-01T07:46:17;5.00;;;1.00;;
75823;SDS011;64457;51.976;9.834;2023-04-01T07:49:01;6.90;;;1.20;;
75823;SDS011;64457;51.976;9.834;2023-04-01T07:51:36;5.80;;;1.20;;
75823;SDS011;64457;51.976;9.834;2023-04-01T07:54:21;6.40;;;1.33;;
75823;SDS011;64457;51.976;9.834;2023-04-01T07:56:57;5.80;;;1.13;;
75823;SDS011;64457;51.976;9.834;2023-04-01T07:59:32;6.23;;;1.23;;
75823;SDS011;64457;51.976;9.834;2023-04-01T08:02:17;5.20;;;1.00;;
75823;SDS011;64457;51.976;9.834;2023-04-01T08:04:59;5.57;;;1.00;;
75823;SDS011;64457;51.976;9.834;2023-04-01T08:07:42;8.37;;;1.60;;
75823;SDS011;64457;51.976;9.834;2023-04-01T08:10:18;5.10;;;0.97;;
75823;SDS011;64457;51.976;9.834;2023-04-01T08:12:55;5.20;;;0.97;;
75823;SDS011;64457;51.976;9.834;2023-04-01T08:15:31;10.30;;;1.60;;
75823;SDS011;64457;51.976;9.834;2023-04-01T08:18:07;6.73;;;1.23;;
75823;SDS011;64457;51.976;9.834;2023-04-01T08:20:46;7.23;;;1.20;;
75823;SDS011;64457;51.976;9.834;2023-04-01T08:23:18;6.33;;;1.27;;
75823;SDS011;64457;51.976;9.834;2023-04-01T08:25:51;6.60;;;1.10;;
75823;SDS011;64457;51.976;9.834;2023-04-01T08:28:27;11.50;;;1.20;;
75823;SDS011;64457;51.976;9.834;2023-04-01T08:31:00;4.73;;;0.90;;
75823;SDS011;64457;51.976;9.834;2023-04-01T08:33:32;6.80;;;1.20;;
75823;SDS011;64457;51.976;9.834;2023-04-01T08:36:02;5.60;;;0.93;;
75823;SDS011;64457;51.976;9.834;2023-04-01T08:38:36;5.53;;;1.10;;
75823;SDS011;64457;51.976;9.834;2023-04-01T08:41:26;5.40;;;0.97;;
75823;SDS011;64457;51.976;9.834;2023-04-01T08:44:32;5.30;;;1.10;;
75823;SDS011;64457;51.976;9.834;2023-04-01T08:47:24;8.40;;;1.30;;
75823;SDS011;64457;51.976;9.834;2023-04-01T08:53:36;8.70;;;0.93;;
75823;SDS011;64457;51.976;9.834;2023-04-01T08:56:33;6.40;;;1.13;;
75823;SDS011;64457;51.976;9.834;2023-04-01T08:59:12;5.23;;;0.93;;
75823;SDS011;64457;51.976;9.834;2023-04-01T09:05:26;5.50;;;1.10;;
75823;SDS011;64457;51.976;9.834;2023-04-01T09:08:20;6.17;;;1.20;;
75823;SDS011;64457;51.976;9.834;2023-04-01T09:11:12;5.43;;;0.93;;
75823;SDS011;64457;51.976;9.834;2023-04-01T09:14:02;5.20;;;1.20;;
75823;SDS011;64457;51.976;9.834;2023-04-01T09:16:56;6.07;;;1.17;;
75823;SDS011;64457;51.976;9.834;2023-04-01T09:20:25;6.63;;;1.40;;
75823;SDS011;64457;51.976;9.834;2023-04-01T09:23:21;6.13;;;1.03;;
75823;SDS011;64457;51.976;9.834;2023-04-01T09:26:43;6.80;;;1.20;;
75823;SDS011;64457;51.976;9.834;2023-04-01T09:29:32;4.60;;;0.80;;
75823;SDS011;64457;51.976;9.834;2023-04-01T09:32:42;5.33;;;0.90;;
75823;SDS011;64457;51.976;9.834;2023-04-01T09:36:02;5.40;;;0.93;;
75823;SDS011;64457;51.976;9.834;2023-04-01T09:38:37;5.50;;;1.07;;
75823;SDS011;64457;51.976;9.834;2023-04-01T09:41:25;6.20;;;1.23;;
75823;SDS011;64457;51.976;9.834;2023-04-01T09:44:00;7.00;;;0.90;;
75823;SDS011;64457;51.976;9.834;2023-04-01T09:46:35;6.60;;;0.83;;
75823;SDS011;64457;51.976;9.834;2023-04-01T09:52:27;7.90;;;1.57;;
75823;SDS011;64457;51.976;9.834;2023-04-01T09:55:17;6.80;;;1.00;;
75823;SDS011;64457;51.976;9.834;2023-04-01T09:58:19;4.90;;;0.80;;
75823;SDS011;64457;51.976;9.834;2023-04-01T10:01:29;5.83;;;0.90;;
75823;SDS011;64457;51.976;9.834;2023-04-01T10:07:35;4.90;;;0.87;;
75823;SDS011;64457;51.976;9.834;2023-04-01T10:14:15;4.90;;;1.00;;
75823;SDS011;64457;51.976;9.834;2023-04-01T10:17:25;4.90;;;0.80;;
75823;SDS011;64457;51.976;9.834;2023-04-01T10:23:29;6.50;;;0.90;;
75823;SDS011;64457;51.976;9.834;2023-04-01T10:26:51;5.40;;;0.87;;
75823;SDS011;64457;51.976;9.834;2023-04-01T10:32:50;5.50;;;0.90;;
75823;SDS011;64457;51.976;9.834;2023-04-01T10:36:01;5.37;;;0.80;;
75823;SDS011;64457;51.976;9.834;2023-04-01T10:45:59;5.23;;;0.90;;
75823;SDS011;64457;51.976;9.834;2023-04-01T10:55:42;5.37;;;1.00;;
75823;SDS011;64457;51.976;9.834;2023-04-01T10:58:53;5.37;;;1.30;;
75823;SDS011;64457;51.976;9.834;2023-04-01T11:12:33;7.83;;;1.20;;
75823;SDS011;64457;51.976;9.834;2023-04-01T11:25:45;5.60;;;1.00;;
75823;SDS011;64457;51.976;9.834;2023-04-01T11:28:37;4.77;;;0.80;;
75823;SDS011;64457;51.976;9.834;2023-04-01T11:31:35;6.37;;;1.00;;
75823;SDS011;64457;51.976;9.834;2023-04-01T11:34:39;7.30;;;0.93;;
75823;SDS011;64457;51.976;9.834;2023-04-01T11:37:29;6.67;;;0.90;;
75823;SDS011;64457;51.976;9.834;2023-04-01T11:40:11;5.30;;;0.87;;
75823;SDS011;64457;51.976;9.834;2023-04-01T11:42:52;6.07;;;0.90;;
75823;SDS011;64457;51.976;9.834;2023-04-01T11:45:31;5.27;;;0.90;;
75823;SDS011;64457;51.976;9.834;2023-04-01T11:48:07;5.70;;;0.80;;
75823;SDS011;64457;51.976;9.834;2023-04-01T11:50:52;5.20;;;0.90;;
75823;SDS011;64457;51.976;9.834;2023-04-01T11:53:44;5.47;;;0.90;;
75823;SDS011;64457;51.976;9.834;2023-04-01T11:56:37;5.83;;;0.90;;
75823;SDS011;64457;51.976;9.834;2023-04-01T11:59:35;5.93;;;1.00;;
75823;SDS011;64457;51.976;9.834;2023-04-01T12:02:20;5.00;;;0.70;;
75823;SDS011;64457;51.976;9.834;2023-04-01T12:05:08;5.47;;;0.87;;
75823;SDS011;64457;51.976;9.834;2023-04-01T12:08:00;5.63;;;0.70;;
75823;SDS011;64457;51.976;9.834;2023-04-01T12:10:39;5.60;;;0.87;;
75823;SDS011;64457;51.976;9.834;2023-04-01T12:13:19;5.33;;;1.13;;
75823;SDS011;64457;51.976;9.834;2023-04-01T12:16:04;5.00;;;0.90;;
75823;SDS011;64457;51.976;9.834;2023-04-01T12:18:58;5.27;;;0.90;;
75823;SDS011;64457;51.976;9.834;2023-04-01T12:21:32;6.43;;;0.80;;
75823;SDS011;64457;51.976;9.834;2023-04-01T12:27:35;6.50;;;1.00;;
75823;SDS011;64457;51.976;9.834;2023-04-01T12:33:04;8.00;;;0.80;;
75823;SDS011;64457;51.976;9.834;2023-04-01T12:36:01;4.97;;;0.90;;
75823;SDS011;64457;51.976;9.834;2023-04-01T12:38:42;5.50;;;0.80;;
75823;SDS011;64457;51.976;9.834;2023-04-01T12:41:29;5.37;;;1.07;;
75823;SDS011;64457;51.976;9.834;2023-04-01T12:47:25;6.33;;;0.97;;
75823;SDS011;64457;51.976;9.834;2023-04-01T12:53:18;6.80;;;0.80;;
75823;SDS011;64457;51.976;9.834;2023-04-01T12:56:06;6.80;;;1.00;;
75823;SDS011;64457;51.976;9.834;2023-04-01T12:58:51;10.57;;;1.00;;
75823;SDS011;64457;51.976;9.834;2023-04-01T13:01:59;5.70;;;1.10;;
75823;SDS011;64457;51.976;9.834;2023-04-01T13:07:48;6.27;;;1.20;;
75823;SDS011;64457;51.976;9.834;2023-04-01T13:10:30;5.30;;;0.87;;
75823;SDS011;64457;51.976;9.834;2023-04-01T13:13:31;5.23;;;0.83;;
75823;SDS011;64457;51.976;9.834;2023-04-01T13:16:26;8.43;;;1.00;;
75823;SDS011;64457;51.976;9.834;2023-04-01T13:18:58;4.90;;;0.83;;
75823;SDS011;64457;51.976;9.834;2023-04-01T13:21:34;5.00;;;0.80;;
75823;SDS011;64457;51.976;9.834;2023-04-01T13:24:22;6.17;;;1.00;;
75823;SDS011;64457;51.976;9.834;2023-04-01T13:27:04;5.00;;;0.90;;
75823;SDS011;64457;51.976;9.834;2023-04-01T13:29:40;5.00;;;0.90;;
75823;SDS011;64457;51.976;9.834;2023-04-01T13:32:21;4.73;;;0.80;;
75823;SDS011;64457;51.976;9.834;2023-04-01T13:35:00;12.40;;;1.10;;
75823;SDS011;64457;51.976;9.834;2023-04-01T13:37:47;6.50;;;1.10;;
75823;SDS011;64457;51.976;9.834;2023-04-01T13:40:39;5.70;;;0.90;;
75823;SDS011;64457;51.976;9.834;2023-04-01T13:43:21;5.20;;;1.00;;
75823;SDS011;64457;51.976;9.834;2023-04-01T13:46:05;6.30;;;1.10;;
75823;SDS011;64457;51.976;9.834;2023-04-01T13:48:47;10.80;;;2.00;;
75823;SDS011;64457;51.976;9.834;2023-04-01T13:52:01;5.70;;;1.00;;
75823;SDS011;64457;51.976;9.834;2023-04-01T14:01:13;6.47;;;0.90;;
75823;SDS011;64457;51.976;9.834;2023-04-01T14:03:49;6.77;;;1.20;;
75823;SDS011;64457;51.976;9.834;2023-04-01T14:06:57;5.57;;;1.10;;
75823;SDS011;64457;51.976;9.834;2023-04-01T14:12:39;8.03;;;1.30;;
75823;SDS011;64457;51.976;9.834;2023-04-01T14:15:28;5.47;;;1.00;;
75823;SDS011;64457;51.976;9.834;2023-04-01T14:21:23;5.67;;;1.17;;
75823;SDS011;64457;51.976;9.834;2023-04-01T14:24:14;6.43;;;1.20;;
75823;SDS011;64457;51.976;9.834;2023-04-01T14:27:01;7.23;;;1.50;;
75823;SDS011;64457;51.976;9.834;2023-04-01T14:30:04;5.73;;;1.40;;
75823;SDS011;64457;51.976;9.834;2023-04-01T14:33:05;6.67;;;2.20;;
75823;SDS011;64457;51.976;9.834;2023-04-01T14:36:02;5.40;;;1.20;;
75823;SDS011;64457;51.976;9.834;2023-04-01T14:38:54;5.70;;;1.10;;
75823;SDS011;64457;51.976;9.834;2023-04-01T14:41:41;9.40;;;1.77;;
75823;SDS011;64457;51.976;9.834;2023-04-01T14:44:30;6.73;;;1.60;;
75823;SDS011;64457;51.976;9.834;2023-04-01T14:47:47;6.80;;;1.50;;
75823;SDS011;64457;51.976;9.834;2023-04-01T14:50:49;6.30;;;1.30;;
75823;SDS011;64457;51.976;9.834;2023-04-01T14:53:52;6.10;;;1.20;;
75823;SDS011;64457;51.976;9.834;2023-04-01T14:56:37;13.13;;;1.60;;
75823;SDS011;64457;51.976;9.834;2023-04-01T14:59:09;6.43;;;1.00;;
75823;SDS011;64457;51.976;9.834;2023-04-01T15:01:46;6.40;;;1.00;;
75823;SDS011;64457;51.976;9.834;2023-04-01T15:04:24;5.77;;;0.97;;
75823;SDS011;64457;51.976;9.834;2023-04-01T15:10:35;5.43;;;1.00;;
75823;SDS011;64457;51.976;9.834;2023-04-01T15:13:43;5.70;;;1.20;;
75823;SDS011;64457;51.976;9.834;2023-04-01T15:16:34;6.93;;;1.50;;
75823;SDS011;64457;51.976;9.834;2023-04-01T15:19:19;6.27;;;1.37;;
75823;SDS011;64457;51.976;9.834;2023-04-01T15:25:04;8.03;;;2.00;;
75823;SDS011;64457;51.976;9.834;2023-04-01T15:27:47;8.37;;;3.10;;
75823;SDS011;64457;51.976;9.834;2023-04-01T15:30:28;8.07;;;2.33;;
75823;SDS011;64457;51.976;9.834;2023-04-01T15:33:07;10.90;;;4.80;;
75823;SDS011;64457;51.976;9.834;2023-04-01T15:36:09;9.23;;;3.43;;
75823;SDS011;64457;51.976;9.834;2023-04-01T15:38:53;6.13;;;1.40;;
75823;SDS011;64457;51.976;9.834;2023-04-01T15:41:34;4.73;;;1.00;;
75823;SDS011;64457;51.976;9.834;2023-04-01T15:47:27;6.90;;;1.10;;
75823;SDS011;64457;51.976;9.834;2023-04-01T15:53:21;7.50;;;1.43;;
75823;SDS011;64457;51.976;9.834;2023-04-01T15:56:41;6.30;;;1.50;;
75823;SDS011;64457;51.976;9.834;2023-04-01T15:59:22;5.20;;;1.10;;
75823;SDS011;64457;51.976;9.834;2023-04-01T16:02:16;7.23;;;1.10;;
75823;SDS011;64457;51.976;9.834;2023-04-01T16:04:52;5.13;;;1.20;;
75823;SDS011;64457;51.976;9.834;2023-04-01T16:07:48;4.70;;;0.83;;
75823;SDS011;64457;51.976;9.834;2023-04-01T16:11:19;4.93;;;0.90;;
75823;SDS011;64457;51.976;9.834;2023-04-01T16:13:55;4.93;;;0.90;;
75823;SDS011;64457;51.976;9.834;2023-04-01T16:16:43;5.43;;;1.03;;
75823;SDS011;64457;51.976;9.834;2023-04-01T16:22:19;7.40;;;1.40;;
75823;SDS011;64457;51.976;9.834;2023-04-01T16:24:53;5.60;;;0.90;;
75823;SDS011;64457;51.976;9.834;2023-04-01T16:27:49;6.00;;;1.60;;
75823;SDS011;64457;51.976;9.834;2023-04-01T16:30:35;5.83;;;1.57;;
75823;SDS011;64457;51.976;9.834;2023-04-01T16:33:10;6.50;;;1.73;;
75823;SDS011;64457;51.976;9.834;2023-04-01T16:35:47;6.20;;;2.20;;
75823;SDS011;64457;51.976;9.834;2023-04-01T16:38:23;10.17;;;4.97;;
75823;SDS011;64457;51.976;9.834;2023-04-01T16:41:14;9.67;;;5.90;;
75823;SDS011;64457;51.976;9.834;2023-04-01T16:43:48;9.83;;;5.67;;
75823;SDS011;64457;51.976;9.834;2023-04-01T16:46:26;12.43;;;6.80;;
75823;SDS011;64457;51.976;9.834;2023-04-01T16:49:14;11.30;;;6.60;;
75823;SDS011;64457;51.976;9.834;2023-04-01T16:51:54;11.23;;;6.90;;
75823;SDS011;64457;51.976;9.834;2023-04-01T16:54:35;16.10;;;7.13;;
75823;SDS011;64457;51.976;9.834;2023-04-01T16:57:14;12.40;;;7.47;;
75823;SDS011;64457;51.976;9.834;2023-04-01T16:59:52;11.40;;;7.00;;
75823;SDS011;64457;51.976;9.834;2023-04-01T17:02:26;15.33;;;7.90;;
75823;SDS011;64457;51.976;9.834;2023-04-01T17:05:00;11.57;;;7.50;;
75823;SDS011;64457;51.976;9.834;2023-04-01T17:07:35;13.93;;;8.10;;
75823;SDS011;64457;51.976;9.834;2023-04-01T17:10:32;13.30;;;7.70;;
75823;SDS011;64457;51.976;9.834;2023-04-01T17:13:17;12.33;;;7.60;;
75823;SDS011;64457;51.976;9.834;2023-04-01T17:16:23;12.87;;;7.60;;
75823;SDS011;64457;51.976;9.834;2023-04-01T17:19:07;11.67;;;6.50;;
75823;SDS011;64457;51.976;9.834;2023-04-01T17:21:54;12.00;;;6.97;;
75823;SDS011;64457;51.976;9.834;2023-04-01T17:24:38;11.47;;;7.10;;
75823;SDS011;64457;51.976;9.834;2023-04-01T17:27:23;12.07;;;7.30;;
75823;SDS011;64457;51.976;9.834;2023-04-01T17:30:13;12.50;;;6.93;;
75823;SDS011;64457;51.976;9.834;2023-04-01T17:33:05;11.10;;;6.70;;
75823;SDS011;64457;51.976;9.834;2023-04-01T17:36:04;11.33;;;6.73;;
75823;SDS011;64457;51.976;9.834;2023-04-01T17:38:48;10.50;;;5.93;;
75823;SDS011;64457;51.976;9.834;2023-04-01T17:41:29;11.50;;;6.70;;
75823;SDS011;64457;51.976;9.834;2023-04-01T17:44:12;11.53;;;6.27;;
75823;SDS011;64457;51.976;9.834;2023-04-01T17:47:03;11.20;;;6.17;;
75823;SDS011;64457;51.976;9.834;2023-04-01T17:50:07;11.67;;;6.53;;
75823;SDS011;64457;51.976;9.834;2023-04-01T17:52:52;10.43;;;5.30;;